sensor_id;sensor_type;location;lat;lon;timestamp;temperature;humidity
30250;DHT22;17064;47.974;13.826;2023-04-06T03:02:34;-3.60;99.90
30250;DHT22;17064;47.974;13.826;2023-04-06T03:07:34;-3.60;99.90
30250;DHT22;17064;47.974;13.826;2023-04-06T03:12:35;-3.70;99.90
30250;DHT22;17064;47.974;13.826;2023-04-06T03:17:36;-3.70;99.90
30250;DHT22;17064;47.974;13.826;2023-04-06T03:22:36;-3.70;99.90
30250;DHT22;17064;47.974;13.826;2023-04-06T03:27:37;-3.70;99.90
30250;DHT22;17064;47.974;13.826;2023-04-06T03:32:38;-3.80;99.90
30250;DHT22;17064;47.974;13.826;2023-04-06T03:37:38;-3.80;99.90
30250;DHT22;17064;47.974;13.826;2023-04-06T03:42:39;-3.80;99.90
30250;DHT22;17064;47.974;13.826;2023-04-06T03:47:40;-3.80;99.90
30250;DHT22;17064;47.974;13.826;2023-04-06T03:52:41;-3.80;99.90
30250;DHT22;17064;47.974;13.826;2023-04-06T03:57:41;-3.80;99.90
30250;DHT22;17064;47.974;13.826;2023-04-06T04:02:42;-3.80;99.90
30250;DHT22;17064;47.974;13.826;2023-04-06T04:07:43;-3.80;99.90
30250;DHT22;17064;47.974;13.826;2023-04-06T04:12:43;-3.90;99.90
30250;DHT22;17064;47.974;13.826;2023-04-06T04:17:44;-3.90;99.90
30250;DHT22;17064;47.974;13.826;2023-04-06T04:22:49;-3.90;99.90
30250;DHT22;17064;47.974;13.826;2023-04-06T04:27:50;-4.00;99.90
30250;DHT22;17064;47.974;13.826;2023-04-06T04:32:51;-4.00;99.90
30250;DHT22;17064;47.974;13.826;2023-04-06T04:37:51;-4.00;99.90
30250;DHT22;17064;47.974;13.826;2023-04-06T04:42:52;-4.00;99.90
30250;DHT22;17064;47.974;13.826;2023-04-06T04:47:53;-4.00;99.90
30250;DHT22;17064;47.974;13.826;2023-04-06T04:52:53;-4.00;99.90
30250;DHT22;17064;47.974;13.826;2023-04-06T04:57:54;-4.00;99.90
30250;DHT22;17064;47.974;13.826;2023-04-06T05:02:55;-4.00;99.90
30250;DHT22;17064;47.974;13.826;2023-04-06T05:07:56;-3.90;99.90
30250;DHT22;17064;47.974;13.826;2023-04-06T05:12:57;-3.80;99.90
30250;DHT22;17064;47.974;13.826;2023-04-06T05:17:58;-3.60;99.90
30250;DHT22;17064;47.974;13.826;2023-04-06T05:22:59;-3.50;99.90
30250;DHT22;17064;47.974;13.826;2023-04-06T05:27:59;-3.30;99.90
30250;DHT22;17064;47.974;13.826;2023-04-06T05:33:00;-3.20;99.90
30250;DHT22;17064;47.974;13.826;2023-04-06T05:38:01;-3.00;99.90
30250;DHT22;17064;47.974;13.826;2023-04-06T05:43:02;-2.90;99.90
30250;DHT22;17064;47.974;13.826;2023-04-06T05:48:04;-2.80;99.90
30250;DHT22;17064;47.974;13.826;2023-04-06T05:53:05;-2.60;99.90
30250;DHT22;17064;47.974;13.826;2023-04-06T05:58:05;-2.30;99.90
30250;DHT22;17064;47.974;13.826;2023-04-06T06:03:06;-2.00;99.90
30250;DHT22;17064;47.974;13.826;2023-04-06T06:08:08;-1.90;99.90
30250;DHT22;17064;47.974;13.826;2023-04-06T06:13:10;-1.60;99.90
30250;DHT22;17064;47.974;13.826;2023-04-06T06:18:11;-1.40;99.90
30250;DHT22;17064;47.974;13.826;2023-04-06T06:23:12;-1.10;99.90
30250;DHT22;17064;47.974;13.826;2023-04-06T06:28:13;-0.90;99.90
30250;DHT22;17064;47.974;13.826;2023-04-06T06:33:13;-0.50;99.90
30250;DHT22;17064;47.974;13.826;2023-04-06T06:38:14;-0.30;99.90
30250;DHT22;17064;47.974;13.826;2023-04-06T06:43:15;0.00;99.90
30250;DHT22;17064;47.974;13.826;2023-04-06T06:48:16;0.40;99.90
30250;DHT22;17064;47.974;13.826;2023-04-06T06:53:16;0.60;99.90
30250;DHT22;17064;47.974;13.826;2023-04-06T06:58:20;1.00;99.90
30250;DHT22;17064;47.974;13.826;2023-04-06T07:03:21;1.20;99.90
30250;DHT22;17064;47.974;13.826;2023-04-06T07:08:23;1.30;99.90
30250;DHT22;17064;47.974;13.826;2023-04-06T07:13:24;1.60;99.90
30250;DHT22;17064;47.974;13.826;2023-04-06T07:18:27;1.80;99.90
30250;DHT22;17064;47.974;13.826;2023-04-06T07:23:27;2.00;99.90
30250;DHT22;17064;47.974;13.826;2023-04-06T07:28:28;2.20;99.90
30250;DHT22;17064;47.974;13.826;2023-04-06T07:33:29;2.40;99.90
30250;DHT22;17064;47.974;13.826;2023-04-06T07:38:30;2.70;99.90
30250;DHT22;17064;47.974;13.826;2023-04-06T07:43:31;3.00;99.90
30250;DHT22;17064;47.974;13.826;2023-04-06T07:48:31;3.30;99.90
30250;DHT22;17064;47.974;13.826;2023-04-06T07:53:32;3.50;99.90
30250;DHT22;17064;47.974;13.826;2023-04-06T07:58:33;3.70;99.90
30250;DHT22;17064;47.974;13.826;2023-04-06T08:03:34;4.00;99.90
30250;DHT22;17064;47.974;13.826;2023-04-06T08:08:35;4.40;99.90
30250;DHT22;17064;47.974;13.826;2023-04-06T08:13:36;4.80;99.90
30250;DHT22;17064;47.974;13.826;2023-04-06T08:18:37;5.00;99.60
30250;DHT22;17064;47.974;13.826;2023-04-06T08:23:37;5.30;99.40
30250;DHT22;17064;47.974;13.826;2023-04-06T08:28:38;5.80;99.00
30250;DHT22;17064;47.974;13.826;2023-04-06T08:33:39;6.20;97.50
30250;DHT22;17064;47.974;13.826;2023-04-06T08:38:41;6.70;95.20
30250;DHT22;17064;47.974;13.826;2023-04-06T08:48:48;7.20;91.50
30250;DHT22;17064;47.974;13.826;2023-04-06T08:53:50;7.60;90.50
30250;DHT22;17064;47.974;13.826;2023-04-06T08:58:52;8.00;88.30
30250;DHT22;17064;47.974;13.826;2023-04-06T09:03:58;8.40;80.60
30250;DHT22;17064;47.974;13.826;2023-04-06T09:09:00;8.60;75.60
30250;DHT22;17064;47.974;13.826;2023-04-06T09:14:01;8.90;71.40
30250;DHT22;17064;47.974;13.826;2023-04-06T09:19:04;9.10;69.70
30250;DHT22;17064;47.974;13.826;2023-04-06T09:24:07;9.20;70.90
30250;DHT22;17064;47.974;13.826;2023-04-06T09:29:08;9.40;66.60
30250;DHT22;17064;47.974;13.826;2023-04-06T09:34:08;9.30;62.80
30250;DHT22;17064;47.974;13.826;2023-04-06T09:39:09;9.50;62.00
30250;DHT22;17064;47.974;13.826;2023-04-06T09:44:11;9.80;58.50
30250;DHT22;17064;47.974;13.826;2023-04-06T09:49:13;9.80;59.50
30250;DHT22;17064;47.974;13.826;2023-04-06T09:54:21;9.80;55.70
30250;DHT22;17064;47.974;13.826;2023-04-06T10:05:36;9.80;52.70
30250;DHT22;17064;47.974;13.826;2023-04-06T10:10:38;9.40;54.80
30250;DHT22;17064;47.974;13.826;2023-04-06T10:15:39;9.80;58.20
30250;DHT22;17064;47.974;13.826;2023-04-06T10:26:03;10.60;50.70
30250;DHT22;17064;47.974;13.826;2023-04-06T10:31:05;10.30;55.20
30250;DHT22;17064;47.974;13.826;2023-04-06T10:36:13;10.70;53.10
30250;DHT22;17064;47.974;13.826;2023-04-06T10:41:17;11.10;51.90
30250;DHT22;17064;47.974;13.826;2023-04-06T10:46:28;11.00;53.50
30250;DHT22;17064;47.974;13.826;2023-04-06T10:51:29;10.80;52.10
30250;DHT22;17064;47.974;13.826;2023-04-06T10:56:32;11.30;51.90
30250;DHT22;17064;47.974;13.826;2023-04-06T11:01:36;11.70;46.30
30250;DHT22;17064;47.974;13.826;2023-04-06T11:06:38;11.30;50.20
30250;DHT22;17064;47.974;13.826;2023-04-06T11:11:39;11.60;50.40
30250;DHT22;17064;47.974;13.826;2023-04-06T11:16:40;11.30;47.70
30250;DHT22;17064;47.974;13.826;2023-04-06T11:21:42;11.30;46.60
30250;DHT22;17064;47.974;13.826;2023-04-06T11:26:46;11.50;47.30
30250;DHT22;17064;47.974;13.826;2023-04-06T11:31:53;12.00;47.40
30250;DHT22;17064;47.974;13.826;2023-04-06T11:36:56;12.00;46.00
30250;DHT22;17064;47.974;13.826;2023-04-06T11:41:59;11.50;47.70
30250;DHT22;17064;47.974;13.826;2023-04-06T11:47:02;11.20;47.30
30250;DHT22;17064;47.974;13.826;2023-04-06T11:52:03;11.20;49.10
30250;DHT22;17064;47.974;13.826;2023-04-06T11:57:14;11.50;50.80
30250;DHT22;17064;47.974;13.826;2023-04-06T12:02:15;11.80;49.30
30250;DHT22;17064;47.974;13.826;2023-04-06T12:07:16;12.40;52.30
30250;DHT22;17064;47.974;13.826;2023-04-06T12:12:16;12.60;47.60
30250;DHT22;17064;47.974;13.826;2023-04-06T12:17:18;12.80;47.10
30250;DHT22;17064;47.974;13.826;2023-04-06T12:22:19;12.80;46.40
30250;DHT22;17064;47.974;13.826;2023-04-06T12:27:20;12.60;47.80
30250;DHT22;17064;47.974;13.826;2023-04-06T12:32:20;12.50;47.30
30250;DHT22;17064;47.974;13.826;2023-04-06T12:37:21;12.50;49.90
30250;DHT22;17064;47.974;13.826;2023-04-06T12:42:22;12.90;46.60
30250;DHT22;17064;47.974;13.826;2023-04-06T12:47:23;13.00;43.60
30250;DHT22;17064;47.974;13.826;2023-04-06T12:52:23;13.00;44.60
30250;DHT22;17064;47.974;13.826;2023-04-06T12:57:24;12.40;44.10
30250;DHT22;17064;47.974;13.826;2023-04-06T13:02:26;11.70;45.50
30250;DHT22;17064;47.974;13.826;2023-04-06T13:07:27;12.00;48.80
30250;DHT22;17064;47.974;13.826;2023-04-06T13:12:28;12.90;47.70
30250;DHT22;17064;47.974;13.826;2023-04-06T13:17:29;13.80;46.30
30250;DHT22;17064;47.974;13.826;2023-04-06T13:22:29;13.50;42.10
30250;DHT22;17064;47.974;13.826;2023-04-06T13:27:30;12.70;43.60
30250;DHT22;17064;47.974;13.826;2023-04-06T13:32:34;12.20;43.60
30250;DHT22;17064;47.974;13.826;2023-04-06T13:37:35;11.80;45.00
30250;DHT22;17064;47.974;13.826;2023-04-06T13:42:35;11.90;43.90
30250;DHT22;17064;47.974;13.826;2023-04-06T13:47:37;11.80;45.00
30250;DHT22;17064;47.974;13.826;2023-04-06T13:52:38;11.00;44.80
30250;DHT22;17064;47.974;13.826;2023-04-06T13:57:38;10.40;47.30
30250;DHT22;17064;47.974;13.826;2023-04-06T14:02:40;10.30;48.20
30250;DHT22;17064;47.974;13.826;2023-04-06T14:07:41;11.00;45.90
30250;DHT22;17064;47.974;13.826;2023-04-06T14:12:42;10.70;47.50
30250;DHT22;17064;47.974;13.826;2023-04-06T14:17:44;10.30;48.00
30250;DHT22;17064;47.974;13.826;2023-04-06T14:22:45;10.20;48.10
30250;DHT22;17064;47.974;13.826;2023-04-06T14:27:46;10.10;49.30
30250;DHT22;17064;47.974;13.826;2023-04-06T14:32:47;11.00;49.90
30250;DHT22;17064;47.974;13.826;2023-04-06T14:37:48;13.00;46.00
30250;DHT22;17064;47.974;13.826;2023-04-06T14:42:48;13.80;42.70
30250;DHT22;17064;47.974;13.826;2023-04-06T14:47:51;13.20;43.10
30250;DHT22;17064;47.974;13.826;2023-04-06T14:52:51;12.90;42.80
30250;DHT22;17064;47.974;13.826;2023-04-06T14:57:52;12.30;42.50
30250;DHT22;17064;47.974;13.826;2023-04-06T15:02:53;11.60;46.00
30250;DHT22;17064;47.974;13.826;2023-04-06T15:07:53;11.40;45.50
30250;DHT22;17064;47.974;13.826;2023-04-06T15:12:54;11.00;47.00
30250;DHT22;17064;47.974;13.826;2023-04-06T15:17:55;10.80;46.60
30250;DHT22;17064;47.974;13.826;2023-04-06T15:22:56;10.60;46.60
30250;DHT22;17064;47.974;13.826;2023-04-06T15:27:57;10.60;49.40
30250;DHT22;17064;47.974;13.826;2023-04-06T15:33:00;10.60;48.00
30250;DHT22;17064;47.974;13.826;2023-04-06T15:38:02;10.60;46.60
30250;DHT22;17064;47.974;13.826;2023-04-06T15:43:03;10.60;47.70
30250;DHT22;17064;47.974;13.826;2023-04-06T15:48:03;10.30;47.30
30250;DHT22;17064;47.974;13.826;2023-04-06T15:53:04;10.10;48.30
30250;DHT22;17064;47.974;13.826;2023-04-06T15:58:05;9.80;49.80
30250;DHT22;17064;47.974;13.826;2023-04-06T16:03:07;9.70;48.90
30250;DHT22;17064;47.974;13.826;2023-04-06T16:08:07;9.60;50.50
30250;DHT22;17064;47.974;13.826;2023-04-06T16:13:08;9.50;48.70
30250;DHT22;17064;47.974;13.826;2023-04-06T16:18:09;9.40;49.10
30250;DHT22;17064;47.974;13.826;2023-04-06T16:23:10;9.30;49.70
30250;DHT22;17064;47.974;13.826;2023-04-06T16:28:11;9.20;49.80
30250;DHT22;17064;47.974;13.826;2023-04-06T16:33:12;9.10;50.20
30250;DHT22;17064;47.974;13.826;2023-04-06T16:38:13;8.90;50.80
30250;DHT22;17064;47.974;13.826;2023-04-06T16:43:14;8.70;50.60
30250;DHT22;17064;47.974;13.826;2023-04-06T16:48:15;8.60;50.70
30250;DHT22;17064;47.974;13.826;2023-04-06T16:53:16;8.50;51.30
30250;DHT22;17064;47.974;13.826;2023-04-06T16:58:16;8.40;51.30
30250;DHT22;17064;47.974;13.826;2023-04-06T17:03:17;8.40;50.90
30250;DHT22;17064;47.974;13.826;2023-04-06T17:08:18;8.20;53.30
30250;DHT22;17064;47.974;13.826;2023-04-06T17:13:18;8.00;55.20
30250;DHT22;17064;47.974;13.826;2023-04-06T17:18:19;7.70;56.10
30250;DHT22;17064;47.974;13.826;2023-04-06T17:23:20;7.50;57.20
30250;DHT22;17064;47.974;13.826;2023-04-06T17:28:20;7.20;58.20
30250;DHT22;17064;47.974;13.826;2023-04-06T17:33:21;7.00;58.10
30250;DHT22;17064;47.974;13.826;2023-04-06T17:38:23;6.80;58.40
30250;DHT22;17064;47.974;13.826;2023-04-06T17:43:23;6.50;59.00
30250;DHT22;17064;47.974;13.826;2023-04-06T17:48:24;6.30;61.70
30250;DHT22;17064;47.974;13.826;2023-04-06T17:53:26;6.10;63.10
30250;DHT22;17064;47.974;13.826;2023-04-06T17:58:30;5.90;64.30
30250;DHT22;17064;47.974;13.826;2023-04-06T18:03:31;5.70;65.70
30250;DHT22;17064;47.974;13.826;2023-04-06T18:08:31;5.50;66.90
30250;DHT22;17064;47.974;13.826;2023-04-06T18:13:32;5.30;66.90
30250;DHT22;17064;47.974;13.826;2023-04-06T18:18:33;5.10;67.60
30250;DHT22;17064;47.974;13.826;2023-04-06T18:23:34;4.90;69.50
30250;DHT22;17064;47.974;13.826;2023-04-06T18:28:36;4.70;69.80
30250;DHT22;17064;47.974;13.826;2023-04-06T18:33:37;4.60;74.00
30250;DHT22;17064;47.974;13.826;2023-04-06T18:38:42;4.50;76.70
30250;DHT22;17064;47.974;13.826;2023-04-06T18:43:43;4.10;83.30
30250;DHT22;17064;47.974;13.826;2023-04-06T18:48:44;3.90;87.80
30250;DHT22;17064;47.974;13.826;2023-04-06T18:53:45;3.60;90.60
30250;DHT22;17064;47.974;13.826;2023-04-06T18:58:45;3.50;92.30
30250;DHT22;17064;47.974;13.826;2023-04-06T19:03:47;3.30;94.40
30250;DHT22;17064;47.974;13.826;2023-04-06T19:08:48;3.10;96.60
30250;DHT22;17064;47.974;13.826;2023-04-06T19:13:50;3.00;98.70
30250;DHT22;17064;47.974;13.826;2023-04-06T19:18:50;2.80;99.90
30250;DHT22;17064;47.974;13.826;2023-04-06T19:23:52;2.70;99.90
30250;DHT22;17064;47.974;13.826;2023-04-06T19:28:56;2.50;99.90
30250;DHT22;17064;47.974;13.826;2023-04-06T19:33:57;2.40;99.90
30250;DHT22;17064;47.974;13.826;2023-04-06T19:38:58;2.30;99.90
30250;DHT22;17064;47.974;13.826;2023-04-06T19:43:58;2.10;99.90
30250;DHT22;17064;47.974;13.826;2023-04-06T19:49:00;2.00;99.90
30250;DHT22;17064;47.974;13.826;2023-04-06T19:54:01;2.00;99.90
30250;DHT22;17064;47.974;13.826;2023-04-06T19:59:02;1.80;99.90
30250;DHT22;17064;47.974;13.826;2023-04-06T20:04:03;1.80;99.90
30250;DHT22;17064;47.974;13.826;2023-04-06T20:09:05;1.70;99.90
30250;DHT22;17064;47.974;13.826;2023-04-06T20:14:06;1.60;99.90
30250;DHT22;17064;47.974;13.826;2023-04-06T20:19:07;1.50;99.90
30250;DHT22;17064;47.974;13.826;2023-04-06T20:24:07;1.40;99.90
30250;DHT22;17064;47.974;13.826;2023-04-06T20:29:08;1.30;99.90
30250;DHT22;17064;47.974;13.826;2023-04-06T20:34:09;1.20;99.90
30250;DHT22;17064;47.974;13.826;2023-04-06T20:39:10;1.20;99.90
30250;DHT22;17064;47.974;13.826;2023-04-06T20:44:11;1.10;99.90
30250;DHT22;17064;47.974;13.826;2023-04-06T20:49:11;1.00;99.90
30250;DHT22;17064;47.974;13.826;2023-04-06T20:54:12;0.80;99.90
30250;DHT22;17064;47.974;13.826;2023-04-06T20:59:13;0.70;99.90
30250;DHT22;17064;47.974;13.826;2023-04-06T21:04:14;0.60;99.90
30250;DHT22;17064;47.974;13.826;2023-04-06T21:09:14;0.60;99.90
30250;DHT22;17064;47.974;13.826;2023-04-06T21:14:15;0.60;99.90
30250;DHT22;17064;47.974;13.826;2023-04-06T21:19:16;0.50;99.90
30250;DHT22;17064;47.974;13.826;2023-04-06T21:24:17;0.50;99.90
30250;DHT22;17064;47.974;13.826;2023-04-06T21:29:18;0.50;99.90
30250;DHT22;17064;47.974;13.826;2023-04-06T21:34:18;0.50;99.90
30250;DHT22;17064;47.974;13.826;2023-04-06T21:39:19;0.50;99.90
30250;DHT22;17064;47.974;13.826;2023-04-06T21:44:20;0.50;99.90
30250;DHT22;17064;47.974;13.826;2023-04-06T21:49:21;0.50;99.90
30250;DHT22;17064;47.974;13.826;2023-04-06T21:54:22;0.50;99.90
30250;DHT22;17064;47.974;13.826;2023-04-06T21:59:23;0.50;99.90
30250;DHT22;17064;47.974;13.826;2023-04-06T22:04:23;0.40;99.90
30250;DHT22;17064;47.974;13.826;2023-04-06T22:09:24;0.40;99.90
30250;DHT22;17064;47.974;13.826;2023-04-06T22:14:25;0.40;99.90
30250;DHT22;17064;47.974;13.826;2023-04-06T22:19:26;0.30;99.90
30250;DHT22;17064;47.974;13.826;2023-04-06T22:24:27;0.30;99.90
30250;DHT22;17064;47.974;13.826;2023-04-06T22:29:27;0.30;99.90
30250;DHT22;17064;47.974;13.826;2023-04-06T22:34:28;0.20;99.90
30250;DHT22;17064;47.974;13.826;2023-04-06T22:39:29;0.10;99.90
30250;DHT22;17064;47.974;13.826;2023-04-06T22:44:30;0.00;99.90
30250;DHT22;17064;47.974;13.826;2023-04-06T22:49:30;-0.20;99.90
30250;DHT22;17064;47.974;13.826;2023-04-06T22:54:31;-0.20;99.90
30250;DHT22;17064;47.974;13.826;2023-04-06T22:59:32;-0.30;99.90
30250;DHT22;17064;47.974;13.826;2023-04-06T23:04:32;-0.40;99.90
30250;DHT22;17064;47.974;13.826;2023-04-06T23:09:33;-0.40;99.90
30250;DHT22;17064;47.974;13.826;2023-04-06T23:14:34;-0.40;99.90
30250;DHT22;17064;47.974;13.826;2023-04-06T23:19:34;-0.50;99.90
30250;DHT22;17064;47.974;13.826;2023-04-06T23:24:35;-0.50;99.90
30250;DHT22;17064;47.974;13.826;2023-04-06T23:29:36;-0.50;99.90
30250;DHT22;17064;47.974;13.826;2023-04-06T23:34:37;-0.50;99.90
30250;DHT22;17064;47.974;13.826;2023-04-06T23:39:37;-0.50;99.90
30250;DHT22;17064;47.974;13.826;2023-04-06T23:44:39;-0.40;99.90
30250;DHT22;17064;47.974;13.826;2023-04-06T23:49:39;-0.40;99.90
30250;DHT22;17064;47.974;13.826;2023-04-06T23:54:40;-0.50;99.90
30250;DHT22;17064;47.974;13.826;2023-04-06T23:59:41;-0.50;99.90
